createdAt,value
2019-04-25T00:00:15.136Z,1003.39
2019-04-25T00:01:15.126Z,1003.38
2019-04-25T00:02:15.127Z,1003.40
2019-04-25T00:03:15.092Z,1003.52
2019-04-25T00:04:15.082Z,1003.51
2019-04-25T00:05:15.067Z,1003.49
2019-04-25T00:06:15.054Z,1003.43
2019-04-25T00:07:15.084Z,1003.43
2019-04-25T00:08:15.050Z,1003.37
2019-04-25T00:09:15.112Z,1003.43
2019-04-25T00:10:15.018Z,1003.45
2019-04-25T00:11:15.013Z,1003.49
2019-04-25T00:12:15.010Z,1003.55
2019-04-25T00:13:15.033Z,1003.52
2019-04-25T00:14:14.975Z,1003.55
2019-04-25T00:15:14.966Z,1003.48
2019-04-25T00:16:14.993Z,1003.64
2019-04-25T00:17:15.026Z,1003.63
2019-04-25T00:18:14.996Z,1003.66
2019-04-25T00:19:14.963Z,1003.65
2019-04-25T00:20:14.942Z,1003.74
2019-04-25T00:21:14.942Z,1003.75
2019-04-25T00:22:14.889Z,1003.78
2019-04-25T00:23:14.885Z,1003.84
2019-04-25T00:24:14.946Z,1003.85
2019-04-25T00:25:17.706Z,1003.86
2019-04-25T00:26:14.847Z,1003.82
2019-04-25T00:27:14.919Z,1003.75
2019-04-25T00:28:14.882Z,1003.74
2019-04-25T00:29:14.813Z,1003.74
2019-04-25T00:30:14.816Z,1003.72
2019-04-25T00:31:14.942Z,1003.79
2019-04-25T00:32:14.798Z,1003.80
2019-04-25T00:33:14.766Z,1003.71
2019-04-25T00:34:14.777Z,1003.68
2019-04-25T00:35:14.769Z,1003.67
2019-04-25T00:36:14.788Z,1003.70
2019-04-25T00:37:14.728Z,1003.77
2019-04-25T00:38:14.767Z,1003.77
2019-04-25T00:39:14.722Z,1003.74
2019-04-25T00:40:14.755Z,1003.71
2019-04-25T00:41:14.680Z,1003.67
2019-04-25T00:42:14.661Z,1003.64
2019-04-25T00:43:14.705Z,1003.67
2019-04-25T00:44:14.671Z,1003.71
2019-04-25T00:45:14.641Z,1003.78
2019-04-25T00:46:14.631Z,1003.81
2019-04-25T00:47:14.611Z,1003.81
2019-04-25T00:48:14.606Z,1003.78
2019-04-25T00:49:14.605Z,1003.69
2019-04-25T00:50:14.681Z,1003.62
2019-04-25T00:51:14.570Z,1003.61
2019-04-25T00:52:14.565Z,1003.64
2019-04-25T00:53:14.677Z,1003.56
2019-04-25T00:54:14.566Z,1003.63
2019-04-25T00:55:26.130Z,1003.66
2019-04-25T00:56:15.523Z,1003.69
2019-04-25T00:57:14.557Z,1003.79
2019-04-25T00:58:14.492Z,1003.72
2019-04-25T00:59:14.529Z,1003.85
2019-04-25T01:00:14.485Z,1003.67
2019-04-25T01:01:14.490Z,1003.69
2019-04-25T01:02:14.449Z,1003.71
2019-04-25T01:03:14.473Z,1003.74
2019-04-25T01:04:14.445Z,1003.75
2019-04-25T01:05:14.476Z,1003.70
2019-04-25T01:06:14.405Z,1003.80
2019-04-25T01:07:14.436Z,1003.82
2019-04-25T01:08:14.411Z,1003.83
2019-04-25T01:09:14.372Z,1003.72
2019-04-25T01:10:14.452Z,1003.77
2019-04-25T01:11:14.371Z,1003.75
2019-04-25T01:12:14.400Z,1003.83
2019-04-25T01:13:14.326Z,1003.89
2019-04-25T01:14:14.364Z,1003.92
2019-04-25T01:15:14.325Z,1003.99
2019-04-25T01:16:14.344Z,1003.98
2019-04-25T01:17:14.380Z,1004.03
2019-04-25T01:18:14.293Z,1003.99
2019-04-25T01:19:14.272Z,1003.93
2019-04-25T01:20:14.268Z,1003.91
2019-04-25T01:21:14.257Z,1003.96
2019-04-25T01:22:14.491Z,1003.96
2019-04-25T01:23:14.250Z,1004.02
2019-04-25T01:24:15.706Z,1003.94
2019-04-25T01:25:14.244Z,1004.00
2019-04-25T01:26:14.266Z,1003.99
2019-04-25T01:27:14.178Z,1004.01
2019-04-25T01:28:14.168Z,1004.09
2019-04-25T01:29:14.193Z,1004.10
2019-04-25T01:30:14.198Z,1004.15
2019-04-25T01:31:14.176Z,1004.08
2019-04-25T01:32:14.136Z,1004.10
2019-04-25T01:33:14.122Z,1004.11
2019-04-25T01:34:14.294Z,1004.14
2019-04-25T01:35:14.106Z,1004.05
2019-04-25T01:36:14.118Z,1004.08
2019-04-25T01:37:14.119Z,1004.01
2019-04-25T01:38:14.058Z,1004.07
2019-04-25T01:39:14.416Z,1004.01
2019-04-25T01:40:14.152Z,1003.97
2019-04-25T01:41:14.585Z,1004.03
2019-04-25T01:42:14.012Z,1004.00
2019-04-25T01:43:14.010Z,1003.96
2019-04-25T01:44:14.350Z,1004.01
2019-04-25T01:45:14.159Z,1003.98
2019-04-25T01:46:14.888Z,1003.87
2019-04-25T01:47:14.147Z,1003.88
2019-04-25T01:48:13.946Z,1003.91
2019-04-25T01:49:14.064Z,1003.98
2019-04-25T01:50:13.925Z,1003.95
2019-04-25T01:51:14.291Z,1003.98
2019-04-25T01:52:13.920Z,1003.95
2019-04-25T01:53:14.606Z,1003.92
2019-04-25T01:54:14.173Z,1003.93
2019-04-25T01:55:13.923Z,1003.97
2019-04-25T01:56:13.884Z,1003.99
2019-04-25T01:57:14.327Z,1003.96
2019-04-25T01:58:13.851Z,1004.04
2019-04-25T01:59:15.199Z,1004.08
2019-04-25T02:00:14.055Z,1004.07
2019-04-25T02:01:14.325Z,1004.07
2019-04-25T02:02:14.086Z,1004.08
2019-04-25T02:03:13.799Z,1004.13
2019-04-25T02:04:13.803Z,1004.06
2019-04-25T02:05:13.959Z,1004.08
2019-04-25T02:06:13.796Z,1004.12
2019-04-25T02:07:13.819Z,1004.07
2019-04-25T02:08:14.292Z,1004.08
2019-04-25T02:09:13.777Z,1004.19
2019-04-25T02:10:13.735Z,1004.11
2019-04-25T02:11:14.189Z,1004.18
2019-04-25T02:12:15.468Z,1004.13
2019-04-25T02:13:13.988Z,1004.14
2019-04-25T02:14:13.803Z,1004.11
2019-04-25T02:15:13.838Z,1004.12
2019-04-25T02:16:14.192Z,1003.97
2019-04-25T02:17:14.136Z,1003.90
2019-04-25T02:18:13.767Z,1003.87
2019-04-25T02:19:14.504Z,1003.97
2019-04-25T02:20:14.071Z,1003.93
2019-04-25T02:21:13.794Z,1003.93
2019-04-25T02:22:14.531Z,1003.87
2019-04-25T02:23:14.137Z,1003.90
2019-04-25T02:24:13.762Z,1003.96
2019-04-25T02:25:13.564Z,1003.91
2019-04-25T02:26:18.216Z,1004.10
2019-04-25T02:27:13.681Z,1004.11
2019-04-25T02:28:13.957Z,1004.14
2019-04-25T02:29:13.746Z,1004.14
2019-04-25T02:30:15.485Z,1004.18
2019-04-25T02:31:15.369Z,1004.09
2019-04-25T02:32:14.602Z,1004.22
2019-04-25T02:33:14.225Z,1004.37
2019-04-25T02:34:15.308Z,1004.30
2019-04-25T02:35:14.722Z,1004.30
2019-04-25T02:36:15.084Z,1004.41
2019-04-25T02:37:14.588Z,1004.35
2019-04-25T02:38:16.533Z,1004.39
2019-04-25T02:39:14.843Z,1004.42
2019-04-25T02:40:14.178Z,1004.43
2019-04-25T02:41:14.751Z,1004.48
2019-04-25T02:42:14.328Z,1004.50
2019-04-25T02:43:14.258Z,1004.52
2019-04-25T02:44:14.570Z,1004.54
2019-04-25T02:45:16.094Z,1004.56
2019-04-25T02:46:15.135Z,1004.66
2019-04-25T02:47:14.782Z,1004.66
2019-04-25T02:48:14.202Z,1004.71
2019-04-25T02:49:28.959Z,1004.73
2019-04-25T02:50:15.066Z,1004.76
2019-04-25T02:51:14.594Z,1004.76
2019-04-25T02:52:17.656Z,1004.84
2019-04-25T02:53:14.180Z,1004.85
2019-04-25T02:54:13.981Z,1004.95
2019-04-25T02:55:29.479Z,1004.93
2019-04-25T02:56:30.482Z,1004.95
2019-04-25T02:57:14.707Z,1004.94
2019-04-25T02:58:14.150Z,1004.98
2019-04-25T02:59:14.938Z,1005.00
2019-04-25T03:00:14.958Z,1005.01
2019-04-25T03:01:19.453Z,1005.04
2019-04-25T03:02:15.359Z,1005.04
2019-04-25T03:03:14.887Z,1005.02
2019-04-25T03:04:14.420Z,1004.99
2019-04-25T03:05:14.261Z,1004.92
2019-04-25T03:06:15.021Z,1004.94
2019-04-25T03:07:16.841Z,1004.85
2019-04-25T03:08:14.275Z,1004.88
2019-04-25T03:09:15.412Z,1004.89
2019-04-25T03:10:14.861Z,1004.86
2019-04-25T03:11:14.930Z,1004.84
2019-04-25T03:12:26.778Z,1004.80
2019-04-25T03:13:14.826Z,1004.84
2019-04-25T03:14:14.707Z,1004.84
2019-04-25T03:15:14.472Z,1004.84
2019-04-25T03:16:14.018Z,1004.96
2019-04-25T03:17:14.385Z,1004.91
2019-04-25T03:18:15.266Z,1005.04
2019-04-25T03:19:14.146Z,1005.06
2019-04-25T03:20:14.829Z,1005.08
2019-04-25T03:21:16.955Z,1005.03
2019-04-25T03:22:15.073Z,1005.08
2019-04-25T03:23:14.510Z,1005.06
2019-04-25T03:24:15.925Z,1005.14
2019-04-25T03:25:17.091Z,1005.08
2019-04-25T03:26:13.530Z,1005.06
2019-04-25T03:27:14.254Z,1005.08
2019-04-25T03:28:13.537Z,1005.09
2019-04-25T03:29:13.677Z,1005.16
2019-04-25T03:30:16.635Z,1005.09
2019-04-25T03:31:18.677Z,1005.15
2019-04-25T03:32:19.344Z,1005.13
2019-04-25T03:33:19.109Z,1005.11
2019-04-25T03:34:19.267Z,1005.20
2019-04-25T03:35:14.512Z,1005.18
2019-04-25T03:36:13.979Z,1005.19
2019-04-25T03:37:13.758Z,1005.20
2019-04-25T03:38:14.413Z,1005.23
2019-04-25T03:39:14.836Z,1005.21
2019-04-25T03:40:13.988Z,1005.18
2019-04-25T03:41:14.644Z,1005.20
2019-04-25T03:42:14.098Z,1005.23
2019-04-25T03:43:14.633Z,1005.23
2019-04-25T03:44:13.955Z,1005.26
2019-04-25T03:45:14.016Z,1005.26
2019-04-25T03:46:14.212Z,1005.28
2019-04-25T03:47:13.567Z,1005.33
2019-04-25T03:48:13.945Z,1005.44
2019-04-25T03:49:13.949Z,1005.48
2019-04-25T03:50:13.974Z,1005.39
2019-04-25T03:51:15.381Z,1005.40
2019-04-25T03:52:14.152Z,1005.45
2019-04-25T03:53:13.909Z,1005.46
2019-04-25T03:54:14.116Z,1005.50
2019-04-25T03:55:14.287Z,1005.39
2019-04-25T03:56:14.479Z,1005.47
2019-04-25T03:57:14.335Z,1005.48
2019-04-25T03:58:13.107Z,1005.48
2019-04-25T03:59:14.694Z,1005.49
2019-04-25T04:00:14.354Z,1005.45
2019-04-25T04:01:13.822Z,1005.51
2019-04-25T04:02:13.525Z,1005.52
2019-04-25T04:03:14.237Z,1005.49
2019-04-25T04:04:15.767Z,1005.57
2019-04-25T04:05:13.926Z,1005.60
2019-04-25T04:06:14.220Z,1005.59
2019-04-25T04:07:14.317Z,1005.67
2019-04-25T04:08:12.490Z,1005.61
2019-04-25T04:09:13.930Z,1005.68
2019-04-25T04:10:14.219Z,1005.70
2019-04-25T04:11:14.080Z,1005.68
2019-04-25T04:12:12.439Z,1005.70
2019-04-25T04:13:14.198Z,1005.76
2019-04-25T04:14:14.409Z,1005.82
2019-04-25T04:15:14.389Z,1005.88
2019-04-25T04:16:14.121Z,1005.89
2019-04-25T04:17:14.438Z,1005.90
2019-04-25T04:18:14.448Z,1005.95
2019-04-25T04:19:13.130Z,1005.99
2019-04-25T04:20:14.501Z,1005.97
2019-04-25T04:21:13.575Z,1006.05
2019-04-25T04:22:13.690Z,1006.07
2019-04-25T04:23:13.489Z,1006.06
2019-04-25T04:24:13.836Z,1006.12
2019-04-25T04:25:13.650Z,1006.18
2019-04-25T04:26:13.666Z,1006.17
2019-04-25T04:27:12.240Z,1006.18
2019-04-25T04:28:13.791Z,1006.22
2019-04-25T04:29:13.802Z,1006.23
2019-04-25T04:30:12.268Z,1006.29
2019-04-25T04:31:12.598Z,1006.30
2019-04-25T04:32:12.578Z,1006.31
2019-04-25T04:33:23.089Z,1006.29
2019-04-25T04:34:14.674Z,1006.33
2019-04-25T04:35:14.621Z,1006.34
2019-04-25T04:36:14.470Z,1006.41
2019-04-25T04:37:13.951Z,1006.45
2019-04-25T04:38:12.134Z,1006.47
2019-04-25T04:39:13.869Z,1006.47
2019-04-25T04:40:12.124Z,1006.50
2019-04-25T04:41:12.096Z,1006.59
2019-04-25T04:42:13.702Z,1006.56
2019-04-25T04:43:12.145Z,1006.62
2019-04-25T04:44:12.049Z,1006.65
2019-04-25T04:45:13.636Z,1006.74
2019-04-25T04:46:13.620Z,1006.72
2019-04-25T04:47:13.657Z,1006.74
2019-04-25T04:48:14.106Z,1006.77
2019-04-25T04:49:12.779Z,1006.73
2019-04-25T04:50:14.162Z,1006.76
2019-04-25T04:51:14.208Z,1006.72
2019-04-25T04:52:12.908Z,1006.77
2019-04-25T04:53:12.820Z,1006.79
2019-04-25T04:54:13.514Z,1006.82
2019-04-25T04:55:14.626Z,1006.84
2019-04-25T04:56:11.922Z,1006.81
2019-04-25T04:57:26.117Z,1006.87
2019-04-25T04:58:14.605Z,1006.90
2019-04-25T04:59:12.861Z,1006.87
2019-04-25T05:00:14.153Z,1006.92
2019-04-25T05:01:13.040Z,1006.93
2019-04-25T05:02:14.618Z,1006.97
2019-04-25T05:03:13.023Z,1006.99
2019-04-25T05:04:12.649Z,1007.00
2019-04-25T05:05:14.240Z,1006.97
2019-04-25T05:06:11.829Z,1007.03
2019-04-25T05:07:11.799Z,1007.08
2019-04-25T05:08:12.974Z,1007.10
2019-04-25T05:09:12.472Z,1007.14
2019-04-25T05:10:14.493Z,1007.19
2019-04-25T05:11:12.944Z,1007.20
2019-04-25T05:12:11.747Z,1007.11
2019-04-25T05:13:12.157Z,1007.13
2019-04-25T05:14:11.849Z,1007.12
2019-04-25T05:15:12.465Z,1007.09
2019-04-25T05:16:12.558Z,1007.09
2019-04-25T05:17:12.224Z,1007.15
2019-04-25T05:18:12.721Z,1007.14
2019-04-25T05:19:12.893Z,1007.17
2019-04-25T05:20:11.997Z,1007.23
2019-04-25T05:21:11.874Z,1007.13
2019-04-25T05:22:13.002Z,1007.14
2019-04-25T05:23:11.971Z,1007.19
2019-04-25T05:24:12.838Z,1007.17
2019-04-25T05:25:13.440Z,1007.25
2019-04-25T05:26:12.190Z,1007.33
2019-04-25T05:27:12.775Z,1007.31
2019-04-25T05:28:13.004Z,1007.37
2019-04-25T05:29:11.588Z,1007.42
2019-04-25T05:30:11.578Z,1007.42
2019-04-25T05:31:14.115Z,1007.39
2019-04-25T05:32:11.546Z,1007.43
2019-04-25T05:33:11.526Z,1007.46
2019-04-25T05:34:11.515Z,1007.50
2019-04-25T05:35:13.201Z,1007.48
2019-04-25T05:36:11.508Z,1007.59
2019-04-25T05:37:11.474Z,1007.71
2019-04-25T05:38:13.222Z,1007.96
2019-04-25T05:39:11.457Z,1008.06
2019-04-25T05:40:11.494Z,1008.10
2019-04-25T05:41:11.506Z,1007.81
2019-04-25T05:42:11.424Z,1007.73
2019-04-25T05:43:11.501Z,1007.68
2019-04-25T05:44:11.417Z,1007.70
2019-04-25T05:45:11.394Z,1007.69
2019-04-25T05:46:13.177Z,1007.70
2019-04-25T05:47:11.366Z,1007.80
2019-04-25T05:48:11.408Z,1007.75
2019-04-25T05:49:11.346Z,1007.90
2019-04-25T05:50:11.422Z,1008.08
2019-04-25T05:51:11.340Z,1008.06
2019-04-25T05:52:11.374Z,1007.92
2019-04-25T05:53:11.310Z,1008.08
2019-04-25T05:54:11.346Z,1008.22
2019-04-25T05:55:11.288Z,1008.32
2019-04-25T05:56:11.307Z,1008.36
2019-04-25T05:57:11.267Z,1008.41
2019-04-25T05:58:11.265Z,1008.49
2019-04-25T05:59:11.315Z,1008.53
2019-04-25T06:00:11.235Z,1008.47
2019-04-25T06:01:11.246Z,1008.61
2019-04-25T06:02:11.275Z,1008.69
2019-04-25T06:03:11.240Z,1008.78
2019-04-25T06:04:11.186Z,1008.88
2019-04-25T06:05:11.221Z,1008.89
2019-04-25T06:06:11.173Z,1008.88
2019-04-25T06:07:11.168Z,1008.98
2019-04-25T06:08:11.141Z,1008.94
2019-04-25T06:09:11.140Z,1009.03
2019-04-25T06:10:11.157Z,1009.14
2019-04-25T06:11:11.129Z,1009.26
2019-04-25T06:12:11.124Z,1009.35
2019-04-25T06:13:11.104Z,1009.52
2019-04-25T06:14:11.079Z,1009.42
2019-04-25T06:15:11.067Z,1009.42
2019-04-25T06:16:11.061Z,1009.32
2019-04-25T06:17:11.066Z,1009.26
2019-04-25T06:18:11.050Z,1009.28
2019-04-25T06:19:13.998Z,1009.42
2019-04-25T06:20:13.459Z,1009.63
2019-04-25T06:21:11.007Z,1009.73
2019-04-25T06:22:11.080Z,1009.68
2019-04-25T06:23:10.995Z,1009.58
2019-04-25T06:24:10.984Z,1009.39
2019-04-25T06:25:13.808Z,1008.73
2019-04-25T06:26:23.048Z,1008.84
2019-04-25T06:27:11.978Z,1009.16
2019-04-25T06:28:10.939Z,1009.06
2019-04-25T06:29:10.925Z,1009.14
2019-04-25T06:30:10.911Z,1009.04
2019-04-25T06:31:10.955Z,1009.10
2019-04-25T06:32:10.895Z,1008.90
2019-04-25T06:33:10.947Z,1008.64
2019-04-25T06:34:10.875Z,1008.63
2019-04-25T06:35:10.857Z,1008.83
2019-04-25T06:36:10.849Z,1008.78
2019-04-25T06:37:10.846Z,1008.63
2019-04-25T06:38:10.847Z,1008.66
2019-04-25T06:39:10.819Z,1008.59
2019-04-25T06:40:10.881Z,1008.69
2019-04-25T06:41:10.797Z,1008.86
2019-04-25T06:42:10.789Z,1009.39
2019-04-25T06:43:10.805Z,1008.70
2019-04-25T06:44:10.769Z,1008.73
2019-04-25T06:45:10.815Z,1009.24
2019-04-25T06:46:10.743Z,1009.24
2019-04-25T06:47:10.792Z,1009.24
2019-04-25T06:48:10.809Z,1008.91
2019-04-25T06:49:10.718Z,1008.71
2019-04-25T06:50:10.702Z,1008.93
2019-04-25T06:51:10.749Z,1009.03
2019-04-25T06:52:10.695Z,1008.81
2019-04-25T06:53:10.727Z,1009.00
2019-04-25T06:54:10.674Z,1008.82
2019-04-25T06:55:10.648Z,1009.17
2019-04-25T06:56:10.658Z,1009.36
2019-04-25T06:57:10.648Z,1009.26
2019-04-25T06:58:13.983Z,1009.28
2019-04-25T06:59:10.653Z,1009.24
2019-04-25T07:00:10.611Z,1009.16
2019-04-25T07:01:10.601Z,1009.15
2019-04-25T07:02:10.575Z,1009.30
2019-04-25T07:03:10.646Z,1009.38
2019-04-25T07:04:10.566Z,1009.26
2019-04-25T07:05:10.547Z,1009.26
2019-04-25T07:06:10.534Z,1009.27
2019-04-25T07:07:13.124Z,1009.29
2019-04-25T07:08:10.521Z,1009.33
2019-04-25T07:09:10.526Z,1009.19
2019-04-25T07:10:10.496Z,1009.30
2019-04-25T07:11:10.482Z,1009.36
2019-04-25T07:12:10.568Z,1009.31
2019-04-25T07:13:10.462Z,1008.76
2019-04-25T07:14:10.489Z,1009.29
2019-04-25T07:15:10.600Z,1009.29
2019-04-25T07:16:10.440Z,1009.41
2019-04-25T07:17:10.424Z,1009.52
2019-04-25T07:18:10.411Z,1009.55
2019-04-25T07:19:10.492Z,1009.48
2019-04-25T07:20:10.418Z,1009.44
2019-04-25T07:21:10.382Z,1009.50
2019-04-25T07:22:10.378Z,1009.45
2019-04-25T07:23:10.360Z,1009.50
2019-04-25T07:24:10.440Z,1009.47
2019-04-25T07:25:10.404Z,1009.36
2019-04-25T07:26:10.402Z,1009.50
2019-04-25T07:27:10.378Z,1009.59
2019-04-25T07:28:22.865Z,1009.32
2019-04-25T07:29:11.345Z,1009.28
2019-04-25T07:30:10.310Z,1009.38
2019-04-25T07:31:10.282Z,1009.66
2019-04-25T07:32:10.318Z,1009.69
2019-04-25T07:33:10.365Z,1009.74
2019-04-25T07:34:10.247Z,1009.59
2019-04-25T07:35:10.256Z,1009.66
2019-04-25T07:36:10.242Z,1009.65
2019-04-25T07:37:10.220Z,1009.60
2019-04-25T07:38:10.262Z,1009.64
2019-04-25T07:39:10.797Z,1009.63
2019-04-25T07:40:10.215Z,1009.71
2019-04-25T07:41:10.188Z,1009.66
2019-04-25T07:42:10.225Z,1009.78
2019-04-25T07:43:10.169Z,1009.74
2019-04-25T07:44:10.147Z,1009.68
2019-04-25T07:45:10.195Z,1009.79
2019-04-25T07:46:10.129Z,1009.87
2019-04-25T07:47:10.129Z,1009.91
2019-04-25T07:48:10.103Z,1009.91
2019-04-25T07:49:10.093Z,1009.90
2019-04-25T07:50:10.191Z,1009.89
2019-04-25T07:51:10.080Z,1009.97
2019-04-25T07:52:11.559Z,1009.94
2019-04-25T07:53:10.095Z,1009.96
2019-04-25T07:54:10.061Z,1009.77
2019-04-25T07:55:10.062Z,1009.72
2019-04-25T07:56:10.028Z,1009.87
2019-04-25T07:57:10.343Z,1009.74
2019-04-25T07:58:10.011Z,1009.47
2019-04-25T07:59:10.029Z,1009.44
2019-04-25T08:00:10.027Z,1009.96
2019-04-25T08:01:09.983Z,1010.00
2019-04-25T08:02:09.969Z,1009.97
2019-04-25T08:03:10.073Z,1009.99
2019-04-25T08:04:09.968Z,1010.03
2019-04-25T08:05:10.042Z,1010.04
2019-04-25T08:06:09.935Z,1010.03
2019-04-25T08:07:09.917Z,1010.03
2019-04-25T08:08:09.967Z,1010.11
2019-04-25T08:09:09.901Z,1010.12
2019-04-25T08:10:09.893Z,1010.05
2019-04-25T08:11:09.964Z,1010.07
2019-04-25T08:12:09.915Z,1010.07
2019-04-25T08:13:09.860Z,1009.96
2019-04-25T08:14:09.857Z,1010.09
2019-04-25T08:15:09.884Z,1010.03
2019-04-25T08:16:09.857Z,1010.00
2019-04-25T08:17:09.820Z,1009.93
2019-04-25T08:18:09.816Z,1009.89
2019-04-25T08:19:09.798Z,1009.65
2019-04-25T08:20:09.809Z,1009.82
2019-04-25T08:21:09.914Z,1009.82
2019-04-25T08:22:09.779Z,1009.67
2019-04-25T08:23:09.764Z,1009.65
2019-04-25T08:24:09.752Z,1009.49
2019-04-25T08:25:09.742Z,1009.77
2019-04-25T08:26:09.878Z,1009.65
2019-04-25T08:27:09.741Z,1009.47
2019-04-25T08:28:09.738Z,1009.48
2019-04-25T08:29:09.704Z,1009.55
2019-04-25T08:30:09.699Z,1009.55
2019-04-25T08:31:09.727Z,1009.48
2019-04-25T08:32:09.691Z,1009.49
2019-04-25T08:33:09.703Z,1009.44
2019-04-25T08:34:09.654Z,1009.47
2019-04-25T08:35:09.650Z,1009.52
2019-04-25T08:36:09.646Z,1009.59
2019-04-25T08:37:18.153Z,1009.56
2019-04-25T08:38:10.637Z,1009.55
2019-04-25T08:39:09.608Z,1009.52
2019-04-25T08:40:09.586Z,1009.52
2019-04-25T08:41:09.612Z,1009.67
2019-04-25T08:42:09.572Z,1009.66
2019-04-25T08:43:09.552Z,1009.61
2019-04-25T08:44:09.603Z,1009.63
2019-04-25T08:45:09.538Z,1009.63
2019-04-25T08:46:09.530Z,1009.60
2019-04-25T08:47:09.608Z,1009.54
2019-04-25T08:48:09.498Z,1009.63
2019-04-25T08:49:09.626Z,1009.55
2019-04-25T08:50:09.488Z,1009.45
2019-04-25T08:51:09.480Z,1009.52
2019-04-25T08:52:09.531Z,1009.41
2019-04-25T08:53:09.534Z,1009.52
2019-04-25T08:54:09.440Z,1009.62
2019-04-25T08:55:09.430Z,1009.67
2019-04-25T08:56:09.491Z,1009.88
2019-04-25T08:57:09.429Z,1009.83
2019-04-25T08:58:09.448Z,1009.94
2019-04-25T08:59:09.390Z,1009.80
2019-04-25T09:00:09.410Z,1009.79
2019-04-25T09:01:09.375Z,1009.71
2019-04-25T09:02:09.516Z,1009.59
2019-04-25T09:03:09.410Z,1009.54
2019-04-25T09:04:09.413Z,1009.53
2019-04-25T09:05:09.323Z,1009.56
2019-04-25T09:06:09.328Z,1009.71
2019-04-25T09:07:09.521Z,1009.63
2019-04-25T09:08:09.363Z,1009.64
2019-04-25T09:09:09.292Z,1009.79
2019-04-25T09:10:09.277Z,1009.64
2019-04-25T09:11:09.409Z,1009.67
2019-04-25T09:12:09.305Z,1009.73
2019-04-25T09:13:09.239Z,1009.78
2019-04-25T09:14:09.229Z,1009.74
2019-04-25T09:15:09.224Z,1009.75
2019-04-25T09:16:09.211Z,1009.68
2019-04-25T09:17:09.325Z,1009.64
2019-04-25T09:18:09.197Z,1009.56
2019-04-25T09:19:09.181Z,1009.59
2019-04-25T09:20:09.181Z,1009.60
2019-04-25T09:21:09.161Z,1009.62
2019-04-25T09:22:09.151Z,1009.47
2019-04-25T09:23:09.146Z,1009.54
2019-04-25T09:24:09.153Z,1009.54
2019-04-25T09:25:09.141Z,1009.48
2019-04-25T09:26:09.115Z,1009.48
2019-04-25T09:27:09.095Z,1009.47
2019-04-25T09:28:09.099Z,1009.43
2019-04-25T09:29:18.878Z,1009.45
2019-04-25T09:30:10.062Z,1009.50
2019-04-25T09:31:09.049Z,1009.46
2019-04-25T09:32:09.060Z,1009.50
2019-04-25T09:33:09.053Z,1009.52
2019-04-25T09:34:09.030Z,1009.46
2019-04-25T09:35:09.012Z,1009.51
2019-04-25T09:36:08.996Z,1009.54
2019-04-25T09:37:08.984Z,1009.52
2019-04-25T09:38:09.010Z,1009.49
2019-04-25T09:39:08.969Z,1009.45
2019-04-25T09:40:08.963Z,1009.46
2019-04-25T09:41:09.024Z,1009.42
2019-04-25T09:42:08.959Z,1009.49
2019-04-25T09:43:08.938Z,1009.49
2019-04-25T09:44:08.920Z,1009.49
2019-04-25T09:45:08.911Z,1009.39
2019-04-25T09:46:08.889Z,1009.39
2019-04-25T09:47:08.893Z,1009.51
2019-04-25T09:48:08.880Z,1009.56
2019-04-25T09:49:08.857Z,1009.59
2019-04-25T09:50:08.853Z,1009.45
2019-04-25T09:51:08.843Z,1009.47
2019-04-25T09:52:08.871Z,1009.45
2019-04-25T09:53:15.493Z,1009.49
2019-04-25T09:54:09.812Z,1009.47
2019-04-25T09:55:08.796Z,1009.40
2019-04-25T09:56:08.792Z,1009.43
2019-04-25T09:57:08.782Z,1009.42
2019-04-25T09:58:08.808Z,1009.40
2019-04-25T09:59:08.763Z,1009.46
2019-04-25T10:00:08.744Z,1009.54
2019-04-25T10:01:08.730Z,1009.47
2019-04-25T10:02:08.746Z,1009.43
2019-04-25T10:03:08.745Z,1009.40
2019-04-25T10:04:08.708Z,1009.39
2019-04-25T10:05:08.730Z,1009.40
2019-04-25T10:06:08.681Z,1009.38
2019-04-25T10:07:08.668Z,1009.36
2019-04-25T10:08:08.658Z,1009.26
2019-04-25T10:09:08.660Z,1009.27
2019-04-25T10:10:08.659Z,1009.22
2019-04-25T10:11:08.830Z,1009.27
2019-04-25T10:12:08.622Z,1009.30
2019-04-25T10:13:08.646Z,1009.29
2019-04-25T10:14:08.638Z,1009.29
2019-04-25T10:15:08.592Z,1009.39
2019-04-25T10:16:08.583Z,1009.43
2019-04-25T10:17:08.580Z,1009.35
2019-04-25T10:18:08.573Z,1009.46
2019-04-25T10:19:08.559Z,1009.45
2019-04-25T10:20:08.547Z,1009.44
2019-04-25T10:21:08.576Z,1009.33
2019-04-25T10:22:08.530Z,1009.35
2019-04-25T10:23:08.510Z,1009.42
2019-04-25T10:24:08.548Z,1009.53
2019-04-25T10:25:08.512Z,1009.46
2019-04-25T10:26:08.474Z,1009.57
2019-04-25T10:27:08.464Z,1009.46
2019-04-25T10:28:08.464Z,1009.42
2019-04-25T10:29:08.455Z,1009.52
2019-04-25T10:30:16.775Z,1009.56
2019-04-25T10:31:09.439Z,1009.71
2019-04-25T10:32:08.411Z,1009.56
2019-04-25T10:33:08.403Z,1009.51
2019-04-25T10:34:08.401Z,1009.38
2019-04-25T10:35:08.381Z,1009.40
2019-04-25T10:36:08.367Z,1009.32
2019-04-25T10:37:08.391Z,1009.41
2019-04-25T10:38:08.345Z,1009.41
2019-04-25T10:39:10.858Z,1009.37
2019-04-25T10:40:08.328Z,1009.32
2019-04-25T10:41:08.316Z,1009.35
2019-04-25T10:42:08.300Z,1009.54
2019-04-25T10:43:08.306Z,1009.63
2019-04-25T10:44:08.279Z,1009.24
2019-04-25T10:45:20.412Z,1009.42
2019-04-25T10:46:09.257Z,1009.28
2019-04-25T10:47:08.249Z,1009.28
2019-04-25T10:48:08.235Z,1009.24
2019-04-25T10:49:08.258Z,1009.21
2019-04-25T10:50:08.236Z,1009.13
2019-04-25T10:51:08.225Z,1009.28
2019-04-25T10:52:08.200Z,1009.36
2019-04-25T10:53:08.187Z,1009.21
2019-04-25T10:54:08.180Z,1009.91
2019-04-25T10:55:08.187Z,1010.05
2019-04-25T10:56:08.188Z,1010.11
2019-04-25T10:57:08.154Z,1010.10
2019-04-25T10:58:08.131Z,1010.08
2019-04-25T10:59:08.119Z,1010.06
2019-04-25T11:00:09.626Z,1010.01
2019-04-25T11:01:08.103Z,1010.03
2019-04-25T11:02:08.121Z,1009.52
2019-04-25T11:03:08.105Z,1010.10
2019-04-25T11:04:08.117Z,1009.30
2019-04-25T11:05:08.077Z,1009.24
2019-04-25T11:06:08.065Z,1009.69
2019-04-25T11:07:08.039Z,1010.00
2019-04-25T11:08:08.035Z,1009.13
2019-04-25T11:09:08.021Z,1009.24
2019-04-25T11:10:08.057Z,1009.71
2019-04-25T11:11:08.005Z,1009.27
2019-04-25T11:12:07.996Z,1009.39
2019-04-25T11:13:07.990Z,1009.48
2019-04-25T11:14:07.982Z,1009.30
2019-04-25T11:15:07.980Z,1009.90
2019-04-25T11:16:07.980Z,1009.46
2019-04-25T11:17:07.944Z,1009.45
2019-04-25T11:18:07.940Z,1009.22
2019-04-25T11:19:07.938Z,1009.86
2019-04-25T11:20:07.934Z,1009.06
2019-04-25T11:21:07.913Z,1009.09
2019-04-25T11:22:07.925Z,1009.31
2019-04-25T11:23:07.891Z,1009.73
2019-04-25T11:24:07.993Z,1009.70
2019-04-25T11:25:07.911Z,1009.58
2019-04-25T11:26:07.864Z,1009.73
2019-04-25T11:27:07.876Z,1009.33
2019-04-25T11:28:07.844Z,1009.24
2019-04-25T11:29:07.930Z,1009.79
2019-04-25T11:30:11.143Z,1009.10
2019-04-25T11:31:07.816Z,1009.18
2019-04-25T11:32:07.810Z,1009.09
2019-04-25T11:33:07.806Z,1009.17
2019-04-25T11:34:07.800Z,1009.09
2019-04-25T11:35:07.822Z,1009.09
2019-04-25T11:36:07.864Z,1009.11
2019-04-25T11:37:07.768Z,1009.21
2019-04-25T11:38:08.172Z,1009.63
2019-04-25T11:39:07.756Z,1009.77
2019-04-25T11:40:07.811Z,1009.85
2019-04-25T11:41:07.752Z,1009.20
2019-04-25T11:42:07.721Z,1009.42
2019-04-25T11:43:07.705Z,1009.88
2019-04-25T11:44:07.745Z,1009.83
2019-04-25T11:45:07.707Z,1009.05
2019-04-25T11:46:07.689Z,1009.25
2019-04-25T11:47:08.743Z,1009.00
2019-04-25T11:48:07.662Z,1009.04
2019-04-25T11:49:07.796Z,1009.80
2019-04-25T11:50:07.656Z,1008.98
2019-04-25T11:51:07.634Z,1009.29
2019-04-25T11:52:07.622Z,1008.92
2019-04-25T11:53:07.608Z,1009.37
2019-04-25T11:54:07.635Z,1009.35
2019-04-25T11:55:07.612Z,1008.90
2019-04-25T11:56:07.585Z,1008.97
2019-04-25T11:57:07.580Z,1008.96
2019-04-25T11:58:07.566Z,1009.18
2019-04-25T11:59:07.556Z,1009.28
2019-04-25T12:00:07.640Z,1008.97
2019-04-25T12:01:07.530Z,1009.60
2019-04-25T12:02:07.538Z,1009.81
2019-04-25T12:03:07.537Z,1009.89
2019-04-25T12:04:07.511Z,1009.42
2019-04-25T12:05:07.589Z,1009.94